createdAt,value
2023-07-03T00:00:24.444Z,100142.13
2023-07-03T00:03:14.830Z,100139.13
2023-07-03T00:05:44.305Z,100145.56
2023-07-03T00:08:13.750Z,100142.41
2023-07-03T00:10:42.255Z,100136.81
2023-07-03T00:13:11.112Z,100145.84
2023-07-03T00:15:39.605Z,100144.78
2023-07-03T00:18:08.011Z,100150.16
2023-07-03T00:20:36.279Z,100148.56
2023-07-03T00:23:04.318Z,100155.69
2023-07-03T00:25:33.965Z,100150.34
2023-07-03T00:28:02.000Z,100151.59
2023-07-03T00:30:30.302Z,100139.22
2023-07-03T00:32:58.372Z,100153.28
2023-07-03T00:35:26.757Z,100156.06
2023-07-03T00:37:54.775Z,100149.13
2023-07-03T00:40:23.069Z,100146.19
2023-07-03T00:42:53.894Z,100148.56
2023-07-03T00:45:22.624Z,100152.31
2023-07-03T00:47:51.160Z,100148.16
2023-07-03T00:50:20.137Z,100137.84
2023-07-03T00:52:52.936Z,100144.59
2023-07-03T00:55:21.698Z,100129.31
2023-07-03T00:57:49.807Z,100134.06
2023-07-03T01:00:22.054Z,100132.50
2023-07-03T01:02:59.244Z,100139.44
2023-07-03T01:05:29.997Z,100134.66
2023-07-03T01:07:58.337Z,100142.09
2023-07-03T01:10:27.233Z,100139.22
2023-07-03T01:12:59.169Z,100142.81
2023-07-03T01:15:30.820Z,100139.44
2023-07-03T01:18:00.777Z,100134.06
2023-07-03T01:20:33.238Z,100136.16
2023-07-03T01:23:05.593Z,100137.44
2023-07-03T01:25:37.448Z,100135.84
2023-07-03T01:28:07.525Z,100143.56
2023-07-03T01:30:36.298Z,100140.19
2023-07-03T01:33:05.515Z,100140.78
2023-07-03T01:35:34.168Z,100142.75
2023-07-03T01:38:03.772Z,100135.31
2023-07-03T01:40:32.095Z,100143.75
2023-07-03T01:43:01.561Z,100142.03
2023-07-03T01:45:30.000Z,100139.41
2023-07-03T01:47:58.195Z,100132.94
2023-07-03T01:50:29.527Z,100136.75
2023-07-03T01:53:01.651Z,100134.19
2023-07-03T01:55:37.002Z,100124.75
2023-07-03T01:58:09.139Z,100123.22
2023-07-03T02:00:41.828Z,100123.34
2023-07-03T02:03:19.380Z,100122.00
2023-07-03T02:05:49.652Z,100119.13
2023-07-03T02:08:19.569Z,100120.34
2023-07-03T02:10:48.432Z,100119.44
2023-07-03T02:13:18.173Z,100101.81
2023-07-03T02:15:46.531Z,100124.91
2023-07-03T02:18:18.879Z,100119.25
2023-07-03T02:20:50.301Z,100125.78
2023-07-03T02:23:18.355Z,100127.97
2023-07-03T02:25:48.281Z,100125.41
2023-07-03T02:28:17.690Z,100117.25
2023-07-03T02:30:46.244Z,100129.38
2023-07-03T02:33:14.278Z,100126.97
2023-07-03T02:35:42.791Z,100123.22
2023-07-03T02:38:12.363Z,100130.91
2023-07-03T02:40:42.970Z,100129.94
2023-07-03T02:43:11.106Z,100134.38
2023-07-03T02:45:43.856Z,100125.28
2023-07-03T02:48:14.799Z,100129.53
2023-07-03T02:50:47.120Z,100132.72
2023-07-03T02:53:15.138Z,100142.00
2023-07-03T02:55:44.232Z,100139.06
2023-07-03T02:58:12.990Z,100141.66
2023-07-03T03:00:42.799Z,100145.63
2023-07-03T03:03:11.251Z,100147.72
2023-07-03T03:05:39.680Z,100134.84
2023-07-03T03:08:08.909Z,100134.91
2023-07-03T03:10:37.301Z,100133.50
2023-07-03T03:13:05.705Z,100133.91
2023-07-03T03:15:36.538Z,100134.69
2023-07-03T03:18:06.355Z,100138.88
2023-07-03T03:20:34.808Z,100144.44
2023-07-03T03:23:02.843Z,100153.94
2023-07-03T03:25:31.350Z,100152.88
2023-07-03T03:27:59.963Z,100144.25
2023-07-03T03:30:28.263Z,100143.56
2023-07-03T03:32:56.452Z,100146.66
2023-07-03T03:35:26.202Z,100145.28
2023-07-03T03:37:54.361Z,100146.03
2023-07-03T03:40:22.707Z,100141.28
2023-07-03T03:42:52.806Z,100146.22
2023-07-03T03:45:21.351Z,100150.94
2023-07-03T03:47:50.006Z,100153.25
2023-07-03T03:50:19.371Z,100145.69
2023-07-03T03:52:49.625Z,100153.13
2023-07-03T03:55:18.159Z,100158.72
2023-07-03T03:57:46.214Z,100161.16
2023-07-03T04:00:18.357Z,100151.69
2023-07-03T04:02:47.990Z,100168.84
2023-07-03T04:05:16.632Z,100170.88
2023-07-03T04:07:44.927Z,100163.50
2023-07-03T04:10:14.696Z,100157.75
2023-07-03T04:12:42.763Z,100165.19
2023-07-03T04:15:11.346Z,100161.50
2023-07-03T04:17:39.532Z,100162.28
2023-07-03T04:20:11.209Z,100170.47
2023-07-03T04:22:39.294Z,100173.91
2023-07-03T04:25:08.524Z,100172.31
2023-07-03T04:27:38.359Z,100180.78
2023-07-03T04:30:08.426Z,100185.16
2023-07-03T04:32:38.329Z,100185.94
2023-07-03T04:35:07.814Z,100185.34
2023-07-03T04:37:35.982Z,100183.06
2023-07-03T04:40:04.683Z,100181.22
2023-07-03T04:42:34.019Z,100187.75
2023-07-03T04:45:03.533Z,100195.75
2023-07-03T04:47:32.206Z,100194.09
2023-07-03T04:50:00.257Z,100197.91
2023-07-03T04:52:29.133Z,100195.31
2023-07-03T04:54:57.341Z,100194.91
2023-07-03T04:57:27.518Z,100186.41
2023-07-03T04:59:56.087Z,100191.00
2023-07-03T05:02:25.794Z,100185.63
2023-07-03T05:04:53.893Z,100184.03
2023-07-03T05:07:24.294Z,100198.28
2023-07-03T05:09:52.362Z,100200.81
2023-07-03T05:12:20.658Z,100199.38
2023-07-03T05:14:48.698Z,100206.00
2023-07-03T05:17:17.224Z,100201.56
2023-07-03T05:19:46.795Z,100211.38
2023-07-03T05:22:15.061Z,100209.38
2023-07-03T05:24:43.069Z,100217.66
2023-07-03T05:27:11.453Z,100223.13
2023-07-03T05:29:39.459Z,100231.06
2023-07-03T05:32:08.655Z,100236.19
2023-07-03T05:34:39.597Z,100237.44
2023-07-03T05:37:09.497Z,100248.56
2023-07-03T05:39:37.568Z,100247.63
2023-07-03T05:42:06.547Z,100255.84
2023-07-03T05:44:34.535Z,100258.06
2023-07-03T05:47:04.191Z,100257.63
2023-07-03T05:49:33.455Z,100263.59
2023-07-03T05:52:01.693Z,100262.31
2023-07-03T05:54:31.143Z,100260.06
2023-07-03T05:56:59.801Z,100267.16
2023-07-03T05:59:28.250Z,100263.91
2023-07-03T06:01:57.344Z,100277.69
2023-07-03T06:04:25.963Z,100271.94
2023-07-03T06:06:56.774Z,100280.38
2023-07-03T06:09:24.978Z,100277.94
2023-07-03T06:11:54.800Z,100276.53
2023-07-03T06:14:22.869Z,100277.72
2023-07-03T06:16:52.074Z,100279.53
2023-07-03T06:19:21.679Z,100282.41
2023-07-03T06:21:50.296Z,100280.00
2023-07-03T06:24:18.305Z,100285.44
2023-07-03T06:26:46.931Z,100292.06
2023-07-03T06:29:16.293Z,100285.75
2023-07-03T06:31:44.618Z,100292.84
2023-07-03T06:34:12.616Z,100300.69
2023-07-03T06:36:41.236Z,100304.81
2023-07-03T06:39:10.725Z,100300.59
2023-07-03T06:41:39.204Z,100300.34
2023-07-03T06:44:12.389Z,100306.50
2023-07-03T06:46:42.274Z,100309.47
2023-07-03T06:49:10.608Z,100315.56
2023-07-03T06:51:39.107Z,100313.50
2023-07-03T06:54:07.252Z,100331.47
2023-07-03T06:56:35.586Z,100333.59
2023-07-03T06:59:03.754Z,100324.00
2023-07-03T07:01:32.093Z,100323.63
2023-07-03T07:04:01.648Z,100323.84
2023-07-03T07:06:32.153Z,100331.34
2023-07-03T07:09:00.856Z,100331.34
2023-07-03T07:11:30.354Z,100326.53
2023-07-03T07:14:00.236Z,100331.66
2023-07-03T07:16:31.803Z,100326.53
2023-07-03T07:19:02.354Z,100327.06
2023-07-03T07:21:31.984Z,100323.63
2023-07-03T07:24:02.601Z,100319.97
2023-07-03T07:26:34.813Z,100321.44
2023-07-03T07:29:03.075Z,100323.63
2023-07-03T07:31:32.390Z,100319.38
2023-07-03T07:34:01.963Z,100319.81
2023-07-03T07:36:30.300Z,100330.31
2023-07-03T07:38:58.310Z,100315.94
2023-07-03T07:41:26.935Z,100330.22
2023-07-03T07:43:56.006Z,100327.28
2023-07-03T07:46:26.422Z,100324.00
2023-07-03T07:48:54.792Z,100324.56
2023-07-03T07:51:24.907Z,100319.19
2023-07-03T07:53:53.433Z,100321.94
2023-07-03T07:56:23.231Z,100324.94
2023-07-03T07:58:51.488Z,100329.25
2023-07-03T08:01:19.875Z,100313.00
2023-07-03T08:03:48.182Z,100310.81
2023-07-03T08:06:16.846Z,100305.56
2023-07-03T08:08:46.778Z,100318.97
2023-07-03T08:11:15.201Z,100313.59
2023-07-03T08:13:43.551Z,100316.16
2023-07-03T08:16:13.252Z,100327.63
2023-07-03T08:18:41.331Z,100311.06
2023-07-03T08:21:09.623Z,100307.34
2023-07-03T08:23:37.897Z,100303.31
2023-07-03T08:26:07.469Z,100306.63
2023-07-03T08:28:35.583Z,100317.03
2023-07-03T08:31:03.878Z,100319.50
2023-07-03T08:33:32.198Z,100335.16
2023-07-03T08:38:31.798Z,100324.66
2023-07-03T08:41:01.479Z,100326.03
2023-07-03T08:43:34.640Z,100314.06
2023-07-03T08:46:03.888Z,100322.44
2023-07-03T08:48:35.764Z,100321.66
2023-07-03T08:51:06.219Z,100334.50
2023-07-03T08:53:37.154Z,100333.09
2023-07-03T08:56:10.553Z,100332.44
2023-07-03T08:58:39.975Z,100330.81
2023-07-03T09:01:17.208Z,100335.91
2023-07-03T09:03:53.023Z,100338.91
2023-07-03T09:06:25.188Z,100346.44
2023-07-03T09:09:01.469Z,100343.88
2023-07-03T09:11:32.989Z,100349.63
2023-07-03T09:14:03.930Z,100342.28
2023-07-03T09:16:32.750Z,100349.06
2023-07-03T09:19:03.042Z,100352.63
2023-07-03T09:21:32.839Z,100344.94
2023-07-03T09:24:05.590Z,100336.38
2023-07-03T09:26:40.124Z,100345.19
2023-07-03T09:29:09.629Z,100358.09
2023-07-03T09:31:37.955Z,100369.09
2023-07-03T09:34:06.121Z,100347.75
2023-07-03T09:36:36.604Z,100359.31
2023-07-03T09:39:11.625Z,100345.00
2023-07-03T09:41:41.422Z,100357.38
2023-07-03T09:44:13.311Z,100360.88
2023-07-03T09:46:42.424Z,100359.50
2023-07-03T09:49:16.661Z,100349.13
2023-07-03T09:51:45.133Z,100367.25
2023-07-03T09:54:20.766Z,100356.06
2023-07-03T09:56:50.546Z,100356.88
2023-07-03T09:59:20.796Z,100368.81
2023-07-03T10:07:00.587Z,100377.16
2023-07-03T10:12:05.400Z,100370.84
2023-07-03T10:14:39.569Z,100382.94
2023-07-03T10:17:14.360Z,100379.53
2023-07-03T10:19:44.156Z,100370.38
2023-07-03T10:22:14.388Z,100371.38
2023-07-03T10:24:43.205Z,100363.25
2023-07-03T10:27:14.504Z,100391.47
2023-07-03T10:29:47.317Z,100386.72
2023-07-03T10:32:17.078Z,100379.13
2023-07-03T10:34:49.879Z,100373.88
2023-07-03T10:37:21.005Z,100378.88
2023-07-03T10:39:53.461Z,100368.44
2023-07-03T10:42:24.020Z,100368.28
2023-07-03T10:44:59.242Z,100370.19
2023-07-03T10:47:31.370Z,100365.75
2023-07-03T10:50:00.517Z,100374.28
2023-07-03T10:52:31.222Z,100363.00
2023-07-03T10:55:08.438Z,100360.69
2023-07-03T10:57:40.726Z,100348.66
2023-07-03T11:00:14.170Z,100346.13
2023-07-03T11:02:48.406Z,100344.88
2023-07-03T11:05:21.268Z,100348.66
2023-07-03T11:07:55.976Z,100340.09
2023-07-03T11:10:29.211Z,100328.72
2023-07-03T11:13:05.681Z,100327.09
2023-07-03T11:15:42.537Z,100347.41
2023-07-03T11:23:48.343Z,100314.09
2023-07-03T11:28:54.369Z,100313.16
2023-07-03T11:31:25.753Z,100314.09
2023-07-03T11:44:33.607Z,100302.94
2023-07-03T11:47:07.194Z,100297.72
2023-07-03T11:49:38.607Z,100315.25
2023-07-03T11:52:08.280Z,100302.97
2023-07-03T11:54:37.752Z,100328.50
2023-07-03T11:57:08.039Z,100312.25
2023-07-03T11:59:40.894Z,100302.28
2023-07-03T12:02:45.976Z,100303.78
2023-07-03T12:06:06.421Z,100311.31
2023-07-03T12:08:44.005Z,100315.97
2023-07-03T12:11:14.047Z,100309.66
2023-07-03T12:13:56.174Z,100307.44
2023-07-03T12:16:39.036Z,100312.56
2023-07-03T12:19:10.734Z,100310.50
2023-07-03T12:21:43.167Z,100337.91
2023-07-03T12:24:28.192Z,100318.22
2023-07-03T12:27:03.131Z,100320.72
2023-07-03T12:29:33.361Z,100312.91
2023-07-03T12:32:06.691Z,100301.84
2023-07-03T12:34:37.643Z,100300.97
2023-07-03T12:37:08.159Z,100293.88
2023-07-03T12:39:38.303Z,100316.50
2023-07-03T12:42:11.931Z,100304.97
2023-07-03T12:44:43.141Z,100296.75
2023-07-03T12:47:13.827Z,100311.22
2023-07-03T12:50:00.294Z,100305.63
2023-07-03T12:52:32.301Z,100318.03
2023-07-03T12:57:35.858Z,100311.59
2023-07-03T13:00:07.229Z,100340.66
2023-07-03T13:02:37.382Z,100326.53
2023-07-03T13:05:13.032Z,100309.66
2023-07-03T13:07:45.143Z,100310.47
2023-07-03T13:10:19.487Z,100320.09
2023-07-03T13:13:04.511Z,100320.78
2023-07-03T13:15:37.396Z,100324.63
2023-07-03T13:18:08.244Z,100328.47
2023-07-03T13:20:37.228Z,100332.66
2023-07-03T13:23:09.940Z,100308.94
2023-07-03T13:25:43.210Z,100313.03
2023-07-03T13:28:13.434Z,100325.00
2023-07-03T13:30:45.498Z,100324.63
2023-07-03T13:33:29.743Z,100326.97
2023-07-03T13:35:57.927Z,100311.28
2023-07-03T13:38:32.457Z,100306.16
2023-07-03T13:41:02.310Z,100299.72
2023-07-03T13:43:32.978Z,100307.44
2023-07-03T13:46:01.892Z,100295.84
2023-07-03T13:48:30.502Z,100298.34
2023-07-03T13:51:00.748Z,100292.63
2023-07-03T13:53:29.035Z,100300.38
2023-07-03T13:56:04.591Z,100305.53
2023-07-03T13:58:32.877Z,100308.53
2023-07-03T14:01:03.305Z,100318.94
2023-07-03T14:03:38.780Z,100298.66
2023-07-03T14:06:14.904Z,100302.22
2023-07-03T14:08:43.213Z,100313.53
2023-07-03T14:11:12.640Z,100297.66
2023-07-03T14:13:43.166Z,100286.22
2023-07-03T14:16:11.249Z,100287.56
2023-07-03T14:18:39.900Z,100274.28
2023-07-03T14:21:08.067Z,100277.94
2023-07-03T14:23:36.332Z,100275.00
2023-07-03T14:26:06.593Z,100293.72
2023-07-03T14:28:36.364Z,100279.28
2023-07-03T14:31:09.615Z,100280.16
2023-07-03T14:33:41.339Z,100298.03
2023-07-03T14:36:14.010Z,100284.69
2023-07-03T14:38:52.917Z,100269.59
2023-07-03T14:41:27.205Z,100262.31
2023-07-03T14:43:57.259Z,100260.06
2023-07-03T14:46:28.508Z,100251.91
2023-07-03T14:48:57.879Z,100252.81
2023-07-03T14:51:30.009Z,100252.81
2023-07-03T14:54:06.150Z,100260.91
2023-07-03T14:56:34.294Z,100269.09
2023-07-03T14:59:18.235Z,100246.63
2023-07-03T15:01:46.461Z,100259.34
2023-07-03T15:04:15.007Z,100250.81
2023-07-03T15:06:43.315Z,100243.13
2023-07-03T15:09:12.461Z,100245.44
2023-07-03T15:11:40.524Z,100242.50
2023-07-03T15:14:09.571Z,100244.75
2023-07-03T15:16:39.086Z,100248.75
2023-07-03T15:19:15.196Z,100252.31
2023-07-03T15:21:53.548Z,100247.31
2023-07-03T15:24:22.292Z,100239.59
2023-07-03T15:26:51.521Z,100226.63
2023-07-03T15:29:19.880Z,100226.38
2023-07-03T15:31:49.462Z,100210.47
2023-07-03T15:34:18.696Z,100212.13
2023-07-03T15:36:46.755Z,100218.19
2023-07-03T15:39:15.043Z,100218.13
2023-07-03T15:41:43.112Z,100213.00
2023-07-03T15:44:11.426Z,100214.91
2023-07-03T15:46:39.849Z,100216.41
2023-07-03T15:49:10.053Z,100206.25
2023-07-03T15:51:38.136Z,100212.72
2023-07-03T15:54:06.554Z,100214.81
2023-07-03T15:56:34.623Z,100210.78
2023-07-03T15:59:03.444Z,100210.34
2023-07-03T16:01:31.566Z,100210.09
2023-07-03T16:04:01.311Z,100209.66
2023-07-03T16:06:36.149Z,100206.44
2023-07-03T16:09:05.018Z,100203.25
2023-07-03T16:11:36.212Z,100200.63
2023-07-03T16:14:04.755Z,100200.84
2023-07-03T16:16:32.798Z,100197.50
2023-07-03T16:19:06.988Z,100201.84
2023-07-03T16:21:37.426Z,100204.00
2023-07-03T16:24:07.992Z,100208.06
2023-07-03T16:26:36.269Z,100206.91
2023-07-03T16:29:08.006Z,100205.72
2023-07-03T16:31:36.352Z,100202.44
2023-07-03T16:34:04.796Z,100199.88
2023-07-03T16:36:33.659Z,100208.53
2023-07-03T16:39:04.879Z,100190.22
2023-07-03T16:41:37.108Z,100192.13
2023-07-03T16:44:05.626Z,100202.63
2023-07-03T16:46:34.167Z,100200.06
2023-07-03T16:49:03.579Z,100198.22
2023-07-03T16:51:31.792Z,100197.38
2023-07-03T16:54:02.268Z,100199.66
2023-07-03T16:56:33.540Z,100198.75
2023-07-03T16:59:02.405Z,100194.91
2023-07-03T17:01:31.729Z,100186.56
2023-07-03T17:04:00.169Z,100171.41
2023-07-03T17:06:31.512Z,100162.09
2023-07-03T17:09:00.403Z,100173.09
2023-07-03T17:11:28.647Z,100177.03
2023-07-03T17:14:00.332Z,100167.53
2023-07-03T17:16:29.185Z,100172.38
2023-07-03T17:19:00.127Z,100168.75
2023-07-03T17:21:28.338Z,100171.00
2023-07-03T17:24:01.581Z,100180.94
2023-07-03T17:26:30.306Z,100190.19
2023-07-03T17:29:00.037Z,100195.16
2023-07-03T17:31:28.223Z,100193.78
2023-07-03T17:33:57.136Z,100178.22
2023-07-03T17:36:25.887Z,100185.56
2023-07-03T17:38:54.335Z,100184.63
2023-07-03T17:41:24.358Z,100179.16
2023-07-03T17:44:03.354Z,100173.75
2023-07-03T17:46:38.025Z,100173.91
2023-07-03T17:49:08.426Z,100182.31
2023-07-03T17:51:39.087Z,100177.69
2023-07-03T17:54:07.778Z,100188.00
2023-07-03T17:56:39.058Z,100189.56
2023-07-03T17:59:11.703Z,100189.91
2023-07-03T18:01:45.105Z,100190.13
2023-07-03T18:04:17.744Z,100190.59
2023-07-03T18:06:48.329Z,100185.25
2023-07-03T18:09:19.106Z,100193.50
2023-07-03T18:12:14.339Z,100191.66
2023-07-03T18:14:44.609Z,100192.22
2023-07-03T18:17:13.175Z,100219.00
2023-07-03T18:19:56.805Z,100187.44
2023-07-03T18:22:24.873Z,100198.38
2023-07-03T18:24:53.444Z,100195.84
2023-07-03T18:27:21.635Z,100197.72
2023-07-03T18:29:55.776Z,100189.28
2023-07-03T18:32:24.978Z,100187.00
2023-07-03T18:34:56.451Z,100185.13
2023-07-03T18:37:29.469Z,100197.63
2023-07-03T18:40:00.864Z,100217.09
2023-07-03T18:42:31.366Z,100214.75
2023-07-03T18:45:03.881Z,100197.94
2023-07-03T18:47:35.114Z,100202.19
2023-07-03T18:50:03.491Z,100194.56
2023-07-03T18:52:33.670Z,100192.25
2023-07-03T18:55:02.004Z,100188.09
2023-07-03T18:57:36.301Z,100189.13
2023-07-03T19:00:08.583Z,100184.75
2023-07-03T19:02:36.660Z,100189.88
2023-07-03T19:05:06.626Z,100185.13
2023-07-03T19:07:37.866Z,100185.16
2023-07-03T19:10:17.764Z,100185.75
2023-07-03T19:12:46.745Z,100188.59
2023-07-03T19:15:16.545Z,100178.88
2023-07-03T19:17:45.162Z,100181.91
2023-07-03T19:20:18.791Z,100184.97
2023-07-03T19:22:48.101Z,100189.59
2023-07-03T19:25:17.920Z,100195.63
2023-07-03T19:27:51.873Z,100189.75
2023-07-03T19:30:21.660Z,100182.97
2023-07-03T19:32:54.170Z,100187.72
2023-07-03T19:35:34.043Z,100191.84
2023-07-03T19:38:11.935Z,100189.75
2023-07-03T19:40:40.300Z,100202.56
2023-07-03T19:43:09.259Z,100192.56
2023-07-03T19:45:51.081Z,100205.41
2023-07-03T19:48:20.760Z,100211.56
2023-07-03T19:50:49.140Z,100213.91
2023-07-03T19:53:17.945Z,100210.31
2023-07-03T19:55:50.698Z,100219.91
2023-07-03T19:58:25.802Z,100219.69
2023-07-03T20:01:02.762Z,100217.28
2023-07-03T20:03:31.235Z,100222.81
2023-07-03T20:05:59.690Z,100229.28
2023-07-03T20:08:27.901Z,100227.88
2023-07-03T20:11:00.472Z,100228.63
2023-07-03T20:13:36.447Z,100232.47
2023-07-03T20:16:14.086Z,100236.88
2023-07-03T20:18:47.614Z,100241.63
2023-07-03T20:21:16.172Z,100241.44
2023-07-03T20:26:34.668Z,100256.63
2023-07-03T20:29:04.358Z,100242.44
2023-07-03T20:31:40.064Z,100249.63
2023-07-03T20:34:08.303Z,100253.41
2023-07-03T20:36:42.886Z,100248.16
2023-07-03T20:39:14.172Z,100247.66
2023-07-03T20:41:50.625Z,100260.88
2023-07-03T20:44:20.237Z,100254.03
2023-07-03T20:46:51.285Z,100254.75
2023-07-03T20:49:19.780Z,100257.56
2023-07-03T20:51:53.768Z,100259.94
2023-07-03T20:54:33.946Z,100260.81
2023-07-03T20:57:02.836Z,100255.38
2023-07-03T20:59:31.044Z,100255.50
2023-07-03T21:02:01.356Z,100264.47
2023-07-03T21:04:30.113Z,100260.97
2023-07-03T21:07:00.720Z,100263.94
2023-07-03T21:09:28.983Z,100265.75
2023-07-03T21:11:58.953Z,100267.97
2023-07-03T21:14:27.233Z,100271.09
2023-07-03T21:16:56.119Z,100268.91
2023-07-03T21:19:25.583Z,100269.19
2023-07-03T21:21:55.575Z,100272.53
2023-07-03T21:24:26.793Z,100274.28
2023-07-03T21:26:58.918Z,100273.31
2023-07-03T21:29:26.953Z,100270.25
2023-07-03T21:31:55.747Z,100266.34
2023-07-03T21:34:27.529Z,100262.22
2023-07-03T21:36:56.192Z,100265.00
2023-07-03T21:39:24.291Z,100268.19
2023-07-03T21:41:52.853Z,100270.38
2023-07-03T21:44:24.806Z,100280.13
2023-07-03T21:47:03.670Z,100281.53
2023-07-03T21:49:35.837Z,100274.59
2023-07-03T21:52:07.243Z,100283.91
2023-07-03T21:54:35.909Z,100283.50
2023-07-03T21:57:05.194Z,100284.50
2023-07-03T21:59:37.855Z,100280.13
2023-07-03T22:02:09.327Z,100277.06
2023-07-03T22:04:39.194Z,100277.56
2023-07-03T22:07:08.111Z,100274.75
2023-07-03T22:09:39.732Z,100277.16
2023-07-03T22:12:09.986Z,100272.75
2023-07-03T22:17:51.800Z,100274.28
2023-07-03T22:20:21.493Z,100273.91
2023-07-03T22:22:52.872Z,100267.97
2023-07-03T22:25:22.301Z,100272.59
2023-07-03T22:27:54.133Z,100273.50
2023-07-03T22:30:22.437Z,100268.81
2023-07-03T22:32:51.018Z,100264.66
2023-07-03T22:35:22.788Z,100263.91
2023-07-03T22:37:52.556Z,100263.66
2023-07-03T22:40:20.897Z,100274.19
2023-07-03T22:42:49.328Z,100254.72
2023-07-03T22:45:17.565Z,100265.22
2023-07-03T22:47:46.164Z,100270.22
2023-07-03T22:50:14.319Z,100270.59
2023-07-03T22:52:42.834Z,100266.84
2023-07-03T22:55:12.321Z,100266.41
2023-07-03T22:57:40.696Z,100267.69
2023-07-03T23:00:12.004Z,100269.63
2023-07-03T23:02:40.862Z,100269.63
2023-07-03T23:05:12.659Z,100271.72
2023-07-03T23:07:41.360Z,100272.53
2023-07-03T23:10:10.307Z,100265.56
2023-07-03T23:12:39.994Z,100271.81
2023-07-03T23:15:08.817Z,100274.22
2023-07-03T23:17:39.450Z,100268.06
2023-07-03T23:20:12.520Z,100277.00
2023-07-03T23:22:42.501Z,100277.38
2023-07-03T23:25:11.107Z,100277.88
2023-07-03T23:27:40.769Z,100270.44
2023-07-03T23:30:12.838Z,100274.31
2023-07-03T23:32:44.143Z,100282.47
2023-07-03T23:35:12.853Z,100276.31
2023-07-03T23:37:44.805Z,100278.78
2023-07-03T23:40:15.465Z,100288.13
2023-07-03T23:42:45.259Z,100291.28
2023-07-03T23:45:14.448Z,100282.38
2023-07-03T23:47:45.088Z,100285.22
2023-07-03T23:50:15.016Z,100282.75
2023-07-03T23:52:47.135Z,100281.00
2023-07-03T23:55:17.372Z,100277.50
2023-07-03T23:57:48.248Z,100287.53
